createdAt,value
2023-04-07T00:01:18.907Z,60.42
2023-04-07T00:03:51.661Z,60.40
2023-04-07T00:06:27.561Z,60.14
2023-04-07T00:09:01.033Z,59.79
2023-04-07T00:11:33.620Z,59.88
2023-04-07T00:14:06.179Z,59.68
2023-04-07T00:16:38.847Z,58.13
2023-04-07T00:19:11.400Z,57.06
2023-04-07T00:21:43.712Z,59.05
2023-04-07T00:24:20.994Z,63.71
2023-04-07T00:26:59.773Z,67.00
2023-04-07T00:29:33.532Z,66.19
2023-04-07T00:32:06.221Z,65.13
2023-04-07T00:34:41.108Z,63.84
2023-04-07T00:37:13.711Z,62.68
2023-04-07T00:39:46.375Z,62.54
2023-04-07T00:42:19.863Z,62.36
2023-04-07T00:44:55.502Z,61.64
2023-04-07T00:47:48.092Z,61.31
2023-04-07T00:50:40.917Z,61.04
2023-04-07T00:53:33.799Z,60.57
2023-04-07T00:56:26.811Z,60.18
2023-04-07T00:59:19.669Z,59.72
2023-04-07T01:02:17.924Z,59.76
2023-04-07T01:05:13.639Z,59.80
2023-04-07T01:08:15.112Z,59.74
2023-04-07T01:11:09.962Z,59.40
2023-04-07T01:14:02.104Z,56.63
2023-04-07T01:16:59.167Z,57.84
2023-04-07T01:19:59.345Z,60.79
2023-04-07T01:22:57.255Z,66.56
2023-04-07T01:26:21.018Z,68.21
2023-04-07T01:29:35.871Z,65.02
2023-04-07T01:32:23.185Z,63.49
2023-04-07T01:35:17.753Z,62.86
2023-04-07T01:38:13.265Z,62.65
2023-04-07T01:41:07.388Z,62.09
2023-04-07T01:44:02.274Z,61.42
2023-04-07T01:46:55.363Z,61.08
2023-04-07T01:49:49.702Z,61.02
2023-04-07T01:52:43.078Z,60.80
2023-04-07T01:55:36.007Z,60.37
2023-04-07T01:58:27.341Z,59.88
2023-04-07T02:01:19.856Z,57.47
2023-04-07T02:04:04.707Z,57.16
2023-04-07T02:07:01.374Z,58.83
2023-04-07T02:09:57.699Z,64.77
2023-04-07T02:12:42.630Z,67.16
2023-04-07T02:15:39.873Z,65.53
2023-04-07T02:18:27.391Z,63.52
2023-04-07T02:21:21.459Z,62.47
2023-04-07T02:24:15.915Z,61.75
2023-04-07T02:27:08.945Z,61.14
2023-04-07T02:30:04.232Z,60.79
2023-04-07T02:32:57.132Z,60.83
2023-04-07T02:35:51.471Z,60.42
2023-04-07T02:38:43.959Z,60.22
2023-04-07T02:41:30.473Z,60.10
2023-04-07T02:44:22.995Z,59.87
2023-04-07T02:47:15.661Z,59.72
2023-04-07T02:50:01.004Z,59.80
2023-04-07T02:52:53.634Z,60.29
2023-04-07T02:55:47.475Z,60.36
2023-04-07T02:58:40.173Z,60.06
2023-04-07T03:01:35.058Z,59.93
2023-04-07T03:04:27.715Z,59.99
2023-04-07T03:07:20.444Z,60.79
2023-04-07T03:10:13.807Z,61.14
2023-04-07T03:13:06.455Z,61.19
2023-04-07T03:15:59.225Z,61.66
2023-04-07T03:18:51.866Z,61.69
2023-04-07T03:21:44.396Z,61.24
2023-04-07T03:24:37.937Z,60.66
2023-04-07T03:27:30.811Z,59.97
2023-04-07T03:30:16.314Z,59.73
2023-04-07T03:33:09.322Z,59.07
2023-04-07T03:36:04.378Z,57.47
2023-04-07T03:38:57.378Z,58.58
2023-04-07T03:41:51.950Z,62.49
2023-04-07T03:44:44.539Z,66.45
2023-04-07T03:47:38.360Z,65.95
2023-04-07T03:50:31.147Z,64.82
2023-04-07T03:53:24.505Z,63.88
2023-04-07T03:56:10.653Z,62.96
2023-04-07T03:59:03.550Z,62.33
2023-04-07T04:01:56.409Z,62.26
2023-04-07T04:04:49.131Z,61.97
2023-04-07T04:07:36.364Z,61.80
2023-04-07T04:10:28.977Z,61.80
2023-04-07T04:13:21.566Z,61.68
2023-04-07T04:16:15.365Z,61.58
2023-04-07T04:19:08.041Z,61.93
2023-04-07T04:22:00.620Z,61.80
2023-04-07T04:24:53.663Z,61.74
2023-04-07T04:27:26.982Z,61.59
2023-04-07T04:30:08.146Z,61.64
2023-04-07T04:32:48.250Z,61.55
2023-04-07T04:35:21.995Z,61.66
2023-04-07T04:38:07.938Z,61.21
2023-04-07T04:40:40.776Z,60.60
2023-04-07T04:43:16.378Z,60.14
2023-04-07T04:45:48.944Z,59.81
2023-04-07T04:48:21.987Z,59.58
2023-04-07T04:50:54.420Z,59.60
2023-04-07T04:53:27.736Z,59.56
2023-04-07T04:56:05.821Z,60.04
2023-04-07T04:58:50.457Z,59.89
2023-04-07T05:01:31.004Z,57.72
2023-04-07T05:04:11.307Z,57.59
2023-04-07T05:06:47.361Z,59.64
2023-04-07T05:09:20.814Z,63.18
2023-04-07T05:11:53.727Z,66.16
2023-04-07T05:14:28.194Z,66.23
2023-04-07T05:17:04.872Z,64.82
2023-04-07T05:19:38.172Z,64.25
2023-04-07T05:22:17.211Z,64.00
2023-04-07T05:24:54.060Z,63.92
2023-04-07T05:27:26.435Z,62.91
2023-04-07T05:30:00.064Z,62.53
2023-04-07T05:32:36.476Z,62.00
2023-04-07T05:35:14.193Z,61.52
2023-04-07T05:37:54.405Z,61.17
2023-04-07T05:40:27.153Z,61.00
2023-04-07T05:43:01.066Z,61.15
2023-04-07T05:45:36.652Z,60.95
2023-04-07T05:48:11.557Z,60.02
2023-04-07T05:50:47.921Z,58.33
2023-04-07T05:53:25.683Z,57.51
2023-04-07T05:55:58.119Z,59.27
2023-04-07T05:58:43.221Z,62.12
2023-04-07T06:01:15.804Z,66.14
2023-04-07T06:03:48.460Z,67.93
2023-04-07T06:06:26.953Z,66.78
2023-04-07T06:08:59.537Z,65.69
2023-04-07T06:11:31.867Z,64.51
2023-04-07T06:14:04.788Z,63.77
2023-04-07T06:16:38.730Z,63.05
2023-04-07T06:19:12.022Z,62.29
2023-04-07T06:21:44.344Z,61.93
2023-04-07T06:24:16.835Z,61.14
2023-04-07T06:26:49.851Z,60.75
2023-04-07T06:29:23.330Z,60.26
2023-04-07T06:31:56.015Z,60.08
2023-04-07T06:34:28.633Z,57.67
2023-04-07T06:37:01.674Z,56.30
2023-04-07T06:39:34.425Z,58.09
2023-04-07T06:42:07.743Z,60.46
2023-04-07T06:44:45.213Z,63.89
2023-04-07T06:47:17.796Z,66.43
2023-04-07T06:49:50.200Z,65.01
2023-04-07T06:52:22.923Z,65.24
2023-04-07T06:54:55.777Z,64.36
2023-04-07T06:57:30.880Z,64.00
2023-04-07T07:00:04.473Z,63.21
2023-04-07T07:02:37.537Z,62.43
2023-04-07T07:05:11.798Z,62.32
2023-04-07T07:07:46.616Z,62.06
2023-04-07T07:10:30.824Z,61.23
2023-04-07T07:13:06.475Z,60.75
2023-04-07T07:15:39.133Z,60.50
2023-04-07T07:18:32.263Z,60.29
2023-04-07T07:21:05.036Z,60.47
2023-04-07T07:23:37.401Z,60.10
2023-04-07T07:26:10.077Z,58.21
2023-04-07T07:28:45.434Z,57.14
2023-04-07T07:31:18.788Z,58.97
2023-04-07T07:34:11.992Z,60.86
2023-04-07T07:36:47.836Z,63.91
2023-04-07T07:39:40.536Z,65.95
2023-04-07T07:42:24.320Z,64.31
2023-04-07T07:45:09.623Z,62.01
2023-04-07T07:47:45.488Z,61.06
2023-04-07T07:50:28.186Z,59.91
2023-04-07T07:53:01.536Z,57.33
2023-04-07T07:55:34.342Z,56.19
2023-04-07T07:58:07.397Z,58.22
2023-04-07T08:00:40.199Z,60.94
2023-04-07T08:03:14.346Z,63.17
2023-04-07T08:05:58.397Z,65.40
2023-04-07T08:08:31.383Z,65.30
2023-04-07T08:11:04.443Z,64.48
2023-04-07T08:13:45.976Z,63.34
2023-04-07T08:16:30.135Z,61.91
2023-04-07T08:19:03.066Z,61.21
2023-04-07T08:21:46.657Z,61.11
2023-04-07T08:24:31.561Z,61.32
2023-04-07T08:27:04.049Z,61.31
2023-04-07T08:29:39.625Z,61.39
2023-04-07T08:32:12.290Z,61.87
2023-04-07T08:34:47.058Z,61.16
2023-04-07T08:37:19.670Z,61.07
2023-04-07T08:40:05.072Z,61.62
2023-04-07T08:43:01.688Z,60.93
2023-04-07T08:45:40.377Z,59.60
2023-04-07T08:48:19.855Z,56.92
2023-04-07T08:51:13.989Z,56.40
2023-04-07T08:54:11.773Z,57.74
2023-04-07T08:57:04.108Z,59.74
2023-04-07T08:59:58.055Z,60.24
2023-04-07T09:02:52.818Z,65.04
2023-04-07T09:05:47.637Z,67.40
2023-04-07T09:08:32.929Z,65.30
2023-04-07T09:11:19.983Z,63.69
2023-04-07T09:14:13.376Z,62.15
2023-04-07T09:16:48.036Z,60.96
2023-04-07T09:19:41.377Z,60.69
2023-04-07T09:22:14.503Z,60.07
2023-04-07T09:25:19.428Z,57.75
2023-04-07T09:28:12.128Z,57.15
2023-04-07T09:30:58.107Z,58.52
2023-04-07T09:33:51.922Z,61.36
2023-04-07T09:36:44.260Z,63.73
2023-04-07T09:39:49.869Z,66.06
2023-04-07T09:42:49.583Z,64.49
2023-04-07T09:45:43.810Z,64.02
2023-04-07T09:48:36.653Z,63.25
2023-04-07T09:51:29.882Z,62.39
2023-04-07T09:54:36.187Z,61.81
2023-04-07T09:57:29.110Z,60.89
2023-04-07T10:00:03.976Z,60.22
2023-04-07T10:02:59.303Z,60.13
2023-04-07T10:05:45.890Z,60.11
2023-04-07T10:08:42.868Z,59.54
2023-04-07T10:11:37.616Z,57.31
2023-04-07T10:14:33.359Z,57.03
2023-04-07T10:17:08.806Z,58.32
2023-04-07T10:19:41.616Z,59.81
2023-04-07T10:22:18.982Z,63.64
2023-04-07T10:24:58.810Z,66.29
2023-04-07T10:27:37.080Z,65.81
2023-04-07T10:30:22.113Z,63.97
2023-04-07T10:32:57.578Z,63.06
2023-04-07T10:35:51.482Z,62.18
2023-04-07T10:38:24.157Z,62.13
2023-04-07T10:40:56.859Z,61.40
2023-04-07T10:43:45.109Z,60.47
2023-04-07T10:46:17.707Z,58.08
2023-04-07T10:49:13.474Z,56.93
2023-04-07T10:51:46.568Z,57.26
2023-04-07T10:54:23.854Z,58.91
2023-04-07T10:57:17.615Z,61.11
2023-04-07T11:00:19.920Z,64.59
2023-04-07T11:02:52.900Z,67.03
2023-04-07T11:05:32.050Z,65.80
2023-04-07T11:08:09.284Z,64.61
2023-04-07T11:10:42.348Z,62.12
2023-04-07T11:16:02.710Z,61.13
2023-04-07T11:18:37.610Z,60.70
2023-04-07T11:21:11.653Z,60.13
2023-04-07T11:23:46.626Z,58.03
2023-04-07T11:26:23.759Z,57.29
2023-04-07T11:28:58.910Z,57.71
2023-04-07T11:31:33.255Z,58.65
2023-04-07T11:34:16.165Z,59.67
2023-04-07T11:36:52.829Z,62.19
2023-04-07T11:39:35.840Z,64.23
2023-04-07T11:42:39.759Z,63.54
2023-04-07T11:45:31.325Z,63.35
2023-04-07T11:48:16.765Z,63.48
2023-04-07T11:50:50.888Z,63.53
2023-04-07T11:53:35.635Z,63.51
2023-04-07T11:56:16.724Z,63.44
2023-04-07T11:59:01.295Z,62.33
2023-04-07T12:01:43.950Z,60.69
2023-04-07T12:04:18.840Z,57.56
2023-04-07T12:06:54.855Z,55.81
2023-04-07T12:09:34.867Z,55.90
2023-04-07T12:12:10.163Z,57.19
2023-04-07T12:14:42.727Z,59.02
2023-04-07T12:17:25.388Z,59.00
2023-04-07T12:20:03.324Z,60.76
2023-04-07T12:22:36.038Z,62.57
2023-04-07T12:25:11.600Z,63.84
2023-04-07T12:27:45.998Z,63.20
2023-04-07T12:30:27.902Z,62.39
2023-04-07T12:33:00.809Z,62.01
2023-04-07T12:35:33.922Z,61.50
2023-04-07T12:38:13.372Z,62.18
2023-04-07T12:40:47.475Z,62.22
2023-04-07T12:43:20.246Z,61.84
2023-04-07T12:45:53.279Z,61.27
2023-04-07T12:48:28.230Z,60.11
2023-04-07T12:51:00.797Z,60.05
2023-04-07T12:53:33.612Z,59.87
2023-04-07T12:56:09.283Z,58.30
2023-04-07T12:58:43.058Z,56.88
2023-04-07T13:01:16.923Z,57.10
2023-04-07T13:03:50.259Z,57.88
2023-04-07T13:06:43.679Z,58.78
2023-04-07T13:09:18.686Z,59.36
2023-04-07T13:11:54.522Z,59.78
2023-04-07T13:14:29.714Z,60.08
2023-04-07T13:17:05.201Z,61.41
2023-04-07T13:19:41.566Z,63.62
2023-04-07T13:22:35.809Z,65.45
2023-04-07T13:25:29.236Z,64.70
2023-04-07T13:28:22.363Z,64.03
2023-04-07T13:31:18.528Z,62.89
2023-04-07T13:34:01.706Z,61.78
2023-04-07T13:36:34.425Z,61.17
2023-04-07T13:39:10.765Z,60.86
2023-04-07T13:42:04.802Z,61.09
2023-04-07T13:44:57.568Z,58.01
2023-04-07T13:47:40.694Z,56.01
2023-04-07T13:50:33.603Z,55.74
2023-04-07T13:53:26.576Z,56.64
2023-04-07T13:55:59.094Z,57.91
2023-04-07T13:58:32.170Z,59.48
2023-04-07T14:01:17.475Z,59.97
2023-04-07T14:03:53.562Z,60.59
2023-04-07T14:06:29.006Z,62.62
2023-04-07T14:09:02.235Z,64.54
2023-04-07T14:11:55.553Z,63.90
2023-04-07T14:14:39.499Z,63.18
2023-04-07T14:17:13.993Z,62.94
2023-04-07T14:19:50.777Z,62.75
2023-04-07T14:22:23.615Z,62.49
2023-04-07T14:24:56.306Z,61.78
2023-04-07T14:27:49.387Z,61.04
2023-04-07T14:30:22.466Z,61.57
2023-04-07T14:32:57.987Z,60.74
2023-04-07T14:35:31.282Z,61.48
2023-04-07T14:38:14.504Z,60.76
2023-04-07T14:40:49.796Z,60.57
2023-04-07T14:43:34.014Z,60.77
2023-04-07T14:46:07.049Z,60.83
2023-04-07T14:49:00.364Z,60.84
2023-04-07T14:51:36.311Z,60.57
2023-04-07T14:54:12.465Z,60.82
2023-04-07T14:56:45.257Z,61.03
2023-04-07T14:59:20.438Z,60.64
2023-04-07T15:01:56.036Z,60.56
2023-04-07T15:04:49.224Z,60.11
2023-04-07T15:07:23.939Z,60.01
2023-04-07T15:10:09.241Z,59.72
2023-04-07T15:12:48.797Z,59.80
2023-04-07T15:15:32.847Z,59.64
2023-04-07T15:18:25.826Z,59.96
2023-04-07T15:21:01.515Z,60.43
2023-04-07T15:23:44.616Z,60.25
2023-04-07T15:26:17.289Z,60.89
2023-04-07T15:28:50.076Z,60.77
2023-04-07T15:31:23.579Z,61.00
2023-04-07T15:33:59.035Z,61.12
2023-04-07T15:36:31.834Z,61.31
2023-04-07T15:39:06.636Z,61.46
2023-04-07T15:41:51.586Z,61.63
2023-04-07T15:44:26.651Z,61.54
2023-04-07T15:47:00.580Z,61.63
2023-04-07T15:49:47.937Z,61.19
2023-04-07T15:52:31.120Z,61.21
2023-04-07T15:55:09.861Z,61.53
2023-04-07T15:57:54.633Z,61.50
2023-04-07T16:00:31.030Z,61.98
2023-04-07T16:03:13.839Z,62.31
2023-04-07T16:05:51.200Z,62.62
2023-04-07T16:08:31.275Z,62.92
2023-04-07T16:11:13.613Z,63.05
2023-04-07T16:13:49.622Z,63.09
2023-04-07T16:16:22.602Z,62.68
2023-04-07T16:18:59.734Z,62.74
2023-04-07T16:21:43.425Z,62.92
2023-04-07T16:24:28.228Z,63.41
2023-04-07T16:27:21.415Z,63.24
2023-04-07T16:30:17.329Z,63.19
2023-04-07T16:33:09.308Z,63.44
2023-04-07T16:35:55.543Z,63.82
2023-04-07T16:38:49.817Z,64.10
2023-04-07T16:41:44.456Z,64.51
2023-04-07T16:44:37.286Z,64.98
2023-04-07T16:47:30.587Z,65.58
2023-04-07T16:50:13.413Z,65.58
2023-04-07T16:53:10.209Z,65.57
2023-04-07T16:56:03.317Z,65.82
2023-04-07T16:58:57.879Z,66.04
2023-04-07T17:01:50.606Z,66.21
2023-04-07T17:04:44.185Z,66.37
2023-04-07T17:07:37.492Z,66.74
2023-04-07T17:10:30.136Z,67.00
2023-04-07T17:13:22.955Z,66.81
2023-04-07T17:16:16.878Z,67.07
2023-04-07T17:18:52.450Z,67.47
2023-04-07T17:21:45.753Z,66.81
2023-04-07T17:24:31.222Z,67.63
2023-04-07T17:27:06.781Z,68.23
2023-04-07T17:29:49.012Z,68.18
2023-04-07T17:32:41.739Z,67.93
2023-04-07T17:35:35.058Z,67.96
2023-04-07T17:38:28.205Z,68.07
2023-04-07T17:41:10.994Z,68.13
2023-04-07T17:44:03.810Z,68.28
2023-04-07T17:46:57.924Z,68.54
2023-04-07T17:49:39.676Z,68.83
2023-04-07T17:52:16.133Z,69.18
2023-04-07T17:54:59.643Z,69.19
2023-04-07T17:57:52.882Z,69.29
2023-04-07T18:00:38.051Z,69.49
2023-04-07T18:03:20.079Z,69.70
2023-04-07T18:06:16.282Z,69.75
2023-04-07T18:08:50.525Z,70.07
2023-04-07T18:11:34.042Z,70.33
2023-04-07T18:14:07.465Z,70.65
2023-04-07T18:16:40.538Z,70.83
2023-04-07T18:19:14.631Z,70.91
2023-04-07T18:21:53.163Z,71.06
2023-04-07T18:24:28.713Z,71.26
2023-04-07T18:27:02.638Z,71.44
2023-04-07T18:29:35.617Z,71.54
2023-04-07T18:32:08.909Z,71.57
2023-04-07T18:34:42.516Z,71.54
2023-04-07T18:37:14.998Z,71.64
2023-04-07T18:39:48.117Z,71.74
2023-04-07T18:42:32.253Z,71.85
2023-04-07T18:45:04.602Z,72.01
2023-04-07T18:47:40.385Z,72.12
2023-04-07T18:50:14.039Z,72.29
2023-04-07T18:52:46.875Z,72.33
2023-04-07T18:55:39.760Z,72.33
2023-04-07T18:58:12.481Z,72.63
2023-04-07T19:00:53.228Z,72.93
2023-04-07T19:03:26.600Z,72.88
2023-04-07T19:08:36.965Z,72.73
2023-04-07T19:11:10.488Z,72.67
2023-04-07T19:13:46.039Z,72.60
2023-04-07T19:16:29.316Z,72.63
2023-04-07T19:19:05.317Z,72.65
2023-04-07T19:21:40.621Z,72.59
2023-04-07T19:24:13.265Z,72.57
2023-04-07T19:26:46.432Z,72.46
2023-04-07T19:29:19.352Z,72.45
2023-04-07T19:31:55.945Z,72.29
2023-04-07T19:34:28.904Z,72.28
2023-04-07T19:37:01.595Z,72.33
2023-04-07T19:39:37.717Z,72.49
2023-04-07T19:42:12.921Z,72.55
2023-04-07T19:44:46.957Z,72.53
2023-04-07T19:47:23.345Z,72.15
2023-04-07T19:49:56.376Z,72.51
2023-04-07T19:52:29.885Z,72.72
2023-04-07T19:55:03.893Z,72.89
2023-04-07T19:57:37.302Z,73.06
2023-04-07T20:00:13.230Z,73.16
2023-04-07T20:02:54.822Z,73.32
2023-04-07T20:05:28.074Z,73.54
2023-04-07T20:08:01.155Z,73.89
2023-04-07T20:10:33.646Z,73.80
2023-04-07T20:13:06.542Z,73.73
2023-04-07T20:15:39.261Z,73.92
2023-04-07T20:18:12.849Z,74.08
2023-04-07T20:20:45.819Z,74.31
2023-04-07T20:23:22.301Z,74.61
2023-04-07T20:25:54.698Z,74.86
2023-04-07T20:28:47.433Z,74.83
2023-04-07T20:31:22.634Z,75.05
2023-04-07T20:34:01.514Z,75.25
2023-04-07T20:36:40.046Z,75.38
2023-04-07T20:39:12.974Z,75.42
2023-04-07T20:41:55.590Z,75.49
2023-04-07T20:44:50.943Z,75.48
2023-04-07T20:47:26.387Z,75.55
2023-04-07T20:50:01.429Z,75.58
2023-04-07T20:52:36.920Z,75.73
2023-04-07T20:55:11.976Z,75.70
2023-04-07T20:57:47.706Z,75.61
2023-04-07T21:00:21.296Z,75.57
2023-04-07T21:02:56.744Z,75.51
2023-04-07T21:05:29.446Z,75.82
2023-04-07T21:08:05.080Z,75.85
2023-04-07T21:10:37.619Z,75.40
2023-04-07T21:13:13.088Z,75.10
2023-04-07T21:15:45.518Z,74.95
2023-04-07T21:18:20.735Z,74.83
2023-04-07T21:20:53.569Z,74.83
2023-04-07T21:23:31.334Z,74.68
2023-04-07T21:26:13.941Z,74.54
2023-04-07T21:28:46.445Z,74.34
2023-04-07T21:31:26.904Z,74.55
2023-04-07T21:33:57.890Z,73.89
2023-04-07T21:36:31.755Z,74.88
2023-04-07T21:39:06.750Z,73.32
2023-04-07T21:41:40.425Z,72.32
2023-04-07T21:44:13.118Z,72.10
2023-04-07T21:46:46.597Z,72.02
2023-04-07T21:49:25.523Z,71.84
2023-04-07T21:52:00.255Z,71.87
2023-04-07T21:54:40.506Z,70.93
2023-04-07T21:57:17.112Z,69.47
2023-04-07T21:59:49.999Z,69.33
2023-04-07T22:02:22.431Z,70.60
2023-04-07T22:04:56.600Z,70.48
2023-04-07T22:07:29.439Z,70.71
2023-04-07T22:10:02.147Z,70.11
2023-04-07T22:12:34.892Z,70.29
2023-04-07T22:15:09.156Z,69.10
2023-04-07T22:17:44.960Z,67.31
2023-04-07T22:20:18.339Z,66.45
2023-04-07T22:22:57.393Z,65.87
2023-04-07T22:25:33.288Z,65.68
2023-04-07T22:28:06.039Z,66.09
2023-04-07T22:30:49.413Z,66.72
2023-04-07T22:33:25.041Z,67.18
2023-04-07T22:36:00.819Z,67.69
2023-04-07T22:38:43.812Z,68.10
2023-04-07T22:41:19.349Z,68.47
2023-04-07T22:44:02.050Z,68.87
2023-04-07T22:46:34.832Z,69.21
2023-04-07T22:49:08.343Z,69.71
2023-04-07T22:51:51.367Z,70.08
2023-04-07T22:54:27.586Z,70.52
2023-04-07T22:57:03.256Z,70.64
2023-04-07T22:59:36.016Z,71.51
2023-04-07T23:02:29.010Z,71.56
2023-04-07T23:05:13.797Z,71.05
2023-04-07T23:07:56.918Z,71.30
2023-04-07T23:10:29.636Z,71.37
2023-04-07T23:13:05.287Z,71.46
2023-04-07T23:15:39.153Z,71.52
2023-04-07T23:18:14.534Z,71.60
2023-04-07T23:20:53.017Z,71.56
2023-04-07T23:23:29.058Z,71.37
2023-04-07T23:26:22.232Z,71.46
2023-04-07T23:29:05.039Z,71.59
2023-04-07T23:31:39.036Z,71.47
2023-04-07T23:34:15.364Z,71.45
2023-04-07T23:36:47.823Z,71.59
2023-04-07T23:39:31.938Z,71.79
2023-04-07T23:42:06.556Z,72.23
2023-04-07T23:44:38.838Z,72.58
2023-04-07T23:47:11.025Z,73.27
2023-04-07T23:49:46.397Z,72.02
2023-04-07T23:52:21.523Z,72.24
2023-04-07T23:54:57.382Z,72.35
2023-04-07T23:57:29.909Z,72.53
